sensor_id;sensor_type;location;lat;lon;timestamp;temperature;humidity
55795;DHT22;41716;51.910;4.430;2023-03-29T06:52:06;9.70;99.90
55795;DHT22;41716;51.910;4.430;2023-03-29T06:57:07;9.20;99.90
55795;DHT22;41716;51.910;4.430;2023-03-29T07:02:10;9.60;99.90
55795;DHT22;41716;51.910;4.430;2023-03-29T07:07:13;9.70;99.90
55795;DHT22;41716;51.910;4.430;2023-03-29T07:12:20;9.20;99.90
55795;DHT22;41716;51.910;4.430;2023-03-29T07:17:22;9.60;99.90
55795;DHT22;41716;51.910;4.430;2023-03-29T07:22:25;9.70;99.90
55795;DHT22;41716;51.910;4.430;2023-03-29T07:27:27;9.80;99.90
55795;DHT22;41716;51.910;4.430;2023-03-29T07:32:29;9.30;99.90
55795;DHT22;41716;51.910;4.430;2023-03-29T07:37:33;10.10;99.90
55795;DHT22;41716;51.910;4.430;2023-03-29T07:42:35;10.20;99.90
55795;DHT22;41716;51.910;4.430;2023-03-29T07:47:37;9.50;99.90
55795;DHT22;41716;51.910;4.430;2023-03-29T07:52:41;10.00;99.90
55795;DHT22;41716;51.910;4.430;2023-03-29T07:57:43;9.70;99.90
55795;DHT22;41716;51.910;4.430;2023-03-29T08:02:46;9.80;99.90
55795;DHT22;41716;51.910;4.430;2023-03-29T08:07:50;9.90;99.90
55795;DHT22;41716;51.910;4.430;2023-03-29T08:12:52;10.40;99.90
55795;DHT22;41716;51.910;4.430;2023-03-29T08:17:54;10.80;99.90
55795;DHT22;41716;51.910;4.430;2023-03-29T08:22:57;10.80;99.90
55795;DHT22;41716;51.910;4.430;2023-03-29T08:27:59;10.20;99.90
55795;DHT22;41716;51.910;4.430;2023-03-29T08:33:00;10.30;99.90
55795;DHT22;41716;51.910;4.430;2023-03-29T08:38:04;11.10;99.90
55795;DHT22;41716;51.910;4.430;2023-03-29T08:48:57;10.90;99.90
55795;DHT22;41716;51.910;4.430;2023-03-29T08:54:04;10.70;99.90
55795;DHT22;41716;51.910;4.430;2023-03-29T08:59:16;11.20;99.90
55795;DHT22;41716;51.910;4.430;2023-03-29T09:04:22;11.20;99.90
55795;DHT22;41716;51.910;4.430;2023-03-29T09:09:30;11.30;99.90
55795;DHT22;41716;51.910;4.430;2023-03-29T09:14:42;10.60;99.90
55795;DHT22;41716;51.910;4.430;2023-03-29T09:19:52;10.70;99.90
55795;DHT22;41716;51.910;4.430;2023-03-29T09:25:04;11.60;99.90
55795;DHT22;41716;51.910;4.430;2023-03-29T09:30:16;11.60;99.90
55795;DHT22;41716;51.910;4.430;2023-03-29T09:35:29;11.50;99.90
55795;DHT22;41716;51.910;4.430;2023-03-29T09:40:37;11.50;99.90
55795;DHT22;41716;51.910;4.430;2023-03-29T09:45:40;11.20;99.90
55795;DHT22;41716;51.910;4.430;2023-03-29T09:50:45;10.80;99.90
55795;DHT22;41716;51.910;4.430;2023-03-29T09:55:49;10.80;99.90
55795;DHT22;41716;51.910;4.430;2023-03-29T10:00:51;11.40;99.90
55795;DHT22;41716;51.910;4.430;2023-03-29T10:05:56;10.50;99.90
55795;DHT22;41716;51.910;4.430;2023-03-29T10:11:03;10.50;99.90
55795;DHT22;41716;51.910;4.430;2023-03-29T10:16:17;11.00;99.90
55795;DHT22;41716;51.910;4.430;2023-03-29T10:21:20;11.70;99.90
55795;DHT22;41716;51.910;4.430;2023-03-29T10:26:28;11.50;99.90
55795;DHT22;41716;51.910;4.430;2023-03-29T10:31:32;11.70;99.90
55795;DHT22;41716;51.910;4.430;2023-03-29T10:36:39;11.10;99.90
55795;DHT22;41716;51.910;4.430;2023-03-29T10:41:44;11.60;99.90
55795;DHT22;41716;51.910;4.430;2023-03-29T10:46:46;11.80;99.90
55795;DHT22;41716;51.910;4.430;2023-03-29T10:51:49;12.70;99.90
55795;DHT22;41716;51.910;4.430;2023-03-29T10:56:54;12.30;99.90
55795;DHT22;41716;51.910;4.430;2023-03-29T11:02:29;12.70;99.90
55795;DHT22;41716;51.910;4.430;2023-03-29T11:07:37;13.20;99.90
55795;DHT22;41716;51.910;4.430;2023-03-29T11:12:49;12.30;99.90
55795;DHT22;41716;51.910;4.430;2023-03-29T11:17:59;12.10;99.90
55795;DHT22;41716;51.910;4.430;2023-03-29T11:23:21;12.80;99.90
55795;DHT22;41716;51.910;4.430;2023-03-29T11:28:33;12.10;99.90
55795;DHT22;41716;51.910;4.430;2023-03-29T11:33:48;12.60;99.90
55795;DHT22;41716;51.910;4.430;2023-03-29T11:38:58;12.50;99.90
55795;DHT22;41716;51.910;4.430;2023-03-29T11:44:10;11.90;99.90
55795;DHT22;41716;51.910;4.430;2023-03-29T11:49:18;11.80;99.90
55795;DHT22;41716;51.910;4.430;2023-03-29T11:54:26;12.70;99.90
55795;DHT22;41716;51.910;4.430;2023-03-29T11:59:33;12.60;99.90
55795;DHT22;41716;51.910;4.430;2023-03-29T12:04:42;12.80;99.90
55795;DHT22;41716;51.910;4.430;2023-03-29T12:09:49;12.30;99.90
55795;DHT22;41716;51.910;4.430;2023-03-29T12:14:57;12.20;99.90
55795;DHT22;41716;51.910;4.430;2023-03-29T12:20:05;12.30;99.90
55795;DHT22;41716;51.910;4.430;2023-03-29T12:25:15;12.90;99.90
55795;DHT22;41716;51.910;4.430;2023-03-29T12:30:29;13.30;99.90
55795;DHT22;41716;51.910;4.430;2023-03-29T12:35:40;13.20;99.90
55795;DHT22;41716;51.910;4.430;2023-03-29T12:40:46;13.20;99.90
55795;DHT22;41716;51.910;4.430;2023-03-29T12:45:52;13.40;99.90
55795;DHT22;41716;51.910;4.430;2023-03-29T12:50:58;14.20;99.90
55795;DHT22;41716;51.910;4.430;2023-03-29T12:56:11;13.90;99.90
55795;DHT22;41716;51.910;4.430;2023-03-29T13:01:26;14.60;99.90
55795;DHT22;41716;51.910;4.430;2023-03-29T13:06:31;14.50;99.90
55795;DHT22;41716;51.910;4.430;2023-03-29T13:11:37;14.60;99.90
55795;DHT22;41716;51.910;4.430;2023-03-29T13:16:42;14.60;99.90
55795;DHT22;41716;51.910;4.430;2023-03-29T13:21:53;14.70;99.90
55795;DHT22;41716;51.910;4.430;2023-03-29T13:27:01;15.00;99.90
55795;DHT22;41716;51.910;4.430;2023-03-29T13:32:20;15.10;99.90
55795;DHT22;41716;51.910;4.430;2023-03-29T13:37:34;15.10;99.90
55795;DHT22;41716;51.910;4.430;2023-03-29T13:42:40;15.00;99.90
55795;DHT22;41716;51.910;4.430;2023-03-29T13:47:44;14.80;99.90
55795;DHT22;41716;51.910;4.430;2023-03-29T13:52:56;14.90;99.90
55795;DHT22;41716;51.910;4.430;2023-03-29T13:58:02;15.20;99.90
55795;DHT22;41716;51.910;4.430;2023-03-29T14:03:10;15.10;99.90
55795;DHT22;41716;51.910;4.430;2023-03-29T14:08:22;14.90;99.90
55795;DHT22;41716;51.910;4.430;2023-03-29T14:13:25;15.50;99.90
55795;DHT22;41716;51.910;4.430;2023-03-29T14:18:33;15.40;99.90
55795;DHT22;41716;51.910;4.430;2023-03-29T14:23:37;15.30;99.90
55795;DHT22;41716;51.910;4.430;2023-03-29T14:28:44;15.30;99.90
55795;DHT22;41716;51.910;4.430;2023-03-29T14:33:52;15.30;99.90
55795;DHT22;41716;51.910;4.430;2023-03-29T14:38:56;15.60;99.90
55795;DHT22;41716;51.910;4.430;2023-03-29T14:43:59;15.90;99.90
55795;DHT22;41716;51.910;4.430;2023-03-29T14:49:03;15.70;99.90
55795;DHT22;41716;51.910;4.430;2023-03-29T14:54:06;15.50;99.90
55795;DHT22;41716;51.910;4.430;2023-03-29T14:59:22;15.60;99.90
55795;DHT22;41716;51.910;4.430;2023-03-29T15:04:32;15.10;99.90
55795;DHT22;41716;51.910;4.430;2023-03-29T15:09:35;15.10;99.90
55795;DHT22;41716;51.910;4.430;2023-03-29T15:14:39;15.20;99.90
55795;DHT22;41716;51.910;4.430;2023-03-29T15:19:43;14.80;99.90
55795;DHT22;41716;51.910;4.430;2023-03-29T15:24:47;14.80;99.90
55795;DHT22;41716;51.910;4.430;2023-03-29T15:29:49;15.10;99.90
55795;DHT22;41716;51.910;4.430;2023-03-29T15:35:03;15.00;99.90
55795;DHT22;41716;51.910;4.430;2023-03-29T15:40:08;15.00;99.90
55795;DHT22;41716;51.910;4.430;2023-03-29T15:45:14;14.80;99.90
55795;DHT22;41716;51.910;4.430;2023-03-29T15:50:18;15.10;99.90
55795;DHT22;41716;51.910;4.430;2023-03-29T15:55:20;15.10;99.90
55795;DHT22;41716;51.910;4.430;2023-03-29T16:00:22;15.00;99.90
55795;DHT22;41716;51.910;4.430;2023-03-29T16:05:26;15.00;99.90
55795;DHT22;41716;51.910;4.430;2023-03-29T16:10:27;15.10;99.90
55795;DHT22;41716;51.910;4.430;2023-03-29T16:15:30;14.90;99.90
55795;DHT22;41716;51.910;4.430;2023-03-29T16:20:34;14.80;99.90
55795;DHT22;41716;51.910;4.430;2023-03-29T16:25:38;14.60;99.90
55795;DHT22;41716;51.910;4.430;2023-03-29T16:30:40;14.60;99.90
55795;DHT22;41716;51.910;4.430;2023-03-29T16:35:43;14.60;99.90
55795;DHT22;41716;51.910;4.430;2023-03-29T16:40:45;14.70;99.90
55795;DHT22;41716;51.910;4.430;2023-03-29T16:45:46;14.60;99.90
55795;DHT22;41716;51.910;4.430;2023-03-29T16:50:49;15.00;99.90
55795;DHT22;41716;51.910;4.430;2023-03-29T16:55:51;14.70;99.90
55795;DHT22;41716;51.910;4.430;2023-03-29T17:00:53;14.60;99.90
55795;DHT22;41716;51.910;4.430;2023-03-29T17:05:56;15.00;99.90
55795;DHT22;41716;51.910;4.430;2023-03-29T17:10:58;15.00;99.90
55795;DHT22;41716;51.910;4.430;2023-03-29T17:16:00;14.90;99.90
55795;DHT22;41716;51.910;4.430;2023-03-29T17:21:04;14.50;99.90
55795;DHT22;41716;51.910;4.430;2023-03-29T17:26:06;14.80;99.90
55795;DHT22;41716;51.910;4.430;2023-03-29T17:31:08;14.40;99.90
55795;DHT22;41716;51.910;4.430;2023-03-29T17:36:11;14.00;99.90
55795;DHT22;41716;51.910;4.430;2023-03-29T17:41:13;14.00;99.90
55795;DHT22;41716;51.910;4.430;2023-03-29T17:46:15;13.90;99.90
55795;DHT22;41716;51.910;4.430;2023-03-29T17:51:23;14.10;99.90
55795;DHT22;41716;51.910;4.430;2023-03-29T17:56:25;14.40;99.90
55795;DHT22;41716;51.910;4.430;2023-03-29T18:01:26;14.40;99.90
55795;DHT22;41716;51.910;4.430;2023-03-29T18:06:29;13.90;99.90
55795;DHT22;41716;51.910;4.430;2023-03-29T18:11:31;13.70;99.90
55795;DHT22;41716;51.910;4.430;2023-03-29T18:16:33;13.50;99.90
55795;DHT22;41716;51.910;4.430;2023-03-29T18:21:36;14.30;99.90
55795;DHT22;41716;51.910;4.430;2023-03-29T18:26:37;14.50;99.90
55795;DHT22;41716;51.910;4.430;2023-03-29T18:31:39;13.50;99.90
55795;DHT22;41716;51.910;4.430;2023-03-29T18:36:43;14.00;99.90
55795;DHT22;41716;51.910;4.430;2023-03-29T18:41:45;14.30;99.90
55795;DHT22;41716;51.910;4.430;2023-03-29T18:46:46;13.90;99.90
55795;DHT22;41716;51.910;4.430;2023-03-29T18:51:49;13.90;99.90
55795;DHT22;41716;51.910;4.430;2023-03-29T18:56:51;13.50;99.90
55795;DHT22;41716;51.910;4.430;2023-03-29T19:01:53;13.40;99.90
55795;DHT22;41716;51.910;4.430;2023-03-29T19:06:56;14.40;99.90
55795;DHT22;41716;51.910;4.430;2023-03-29T19:11:59;14.30;99.90
55795;DHT22;41716;51.910;4.430;2023-03-29T19:17:00;13.30;99.90
55795;DHT22;41716;51.910;4.430;2023-03-29T19:22:03;13.70;99.90
55795;DHT22;41716;51.910;4.430;2023-03-29T19:27:06;13.20;99.90
55795;DHT22;41716;51.910;4.430;2023-03-29T19:32:08;13.90;99.90
55795;DHT22;41716;51.910;4.430;2023-03-29T19:37:11;13.40;99.90
55795;DHT22;41716;51.910;4.430;2023-03-29T19:42:13;13.20;99.90
55795;DHT22;41716;51.910;4.430;2023-03-29T19:47:14;13.80;99.90
55795;DHT22;41716;51.910;4.430;2023-03-29T19:52:17;13.20;99.90
55795;DHT22;41716;51.910;4.430;2023-03-29T19:57:19;13.30;99.90
55795;DHT22;41716;51.910;4.430;2023-03-29T20:02:22;13.20;99.90
55795;DHT22;41716;51.910;4.430;2023-03-29T20:07:25;14.00;99.90
55795;DHT22;41716;51.910;4.430;2023-03-29T20:12:26;13.20;99.90
55795;DHT22;41716;51.910;4.430;2023-03-29T20:17:28;13.80;99.90
55795;DHT22;41716;51.910;4.430;2023-03-29T20:22:33;13.30;99.90
55795;DHT22;41716;51.910;4.430;2023-03-29T20:27:37;13.20;99.90
55795;DHT22;41716;51.910;4.430;2023-03-29T20:32:40;13.40;99.90
55795;DHT22;41716;51.910;4.430;2023-03-29T20:37:43;13.30;99.90
55795;DHT22;41716;51.910;4.430;2023-03-29T20:42:45;13.50;99.90
55795;DHT22;41716;51.910;4.430;2023-03-29T20:47:49;13.90;99.90
55795;DHT22;41716;51.910;4.430;2023-03-29T20:52:58;13.50;99.90
55795;DHT22;41716;51.910;4.430;2023-03-29T20:58:03;14.00;99.90
55795;DHT22;41716;51.910;4.430;2023-03-29T21:03:05;13.00;99.90
55795;DHT22;41716;51.910;4.430;2023-03-29T21:08:08;13.80;99.90
55795;DHT22;41716;51.910;4.430;2023-03-29T21:13:10;12.90;99.90
55795;DHT22;41716;51.910;4.430;2023-03-29T21:18:12;13.20;99.90
55795;DHT22;41716;51.910;4.430;2023-03-29T21:23:15;13.80;99.90
55795;DHT22;41716;51.910;4.430;2023-03-29T21:28:17;13.50;99.90
55795;DHT22;41716;51.910;4.430;2023-03-29T21:33:19;13.70;99.90
55795;DHT22;41716;51.910;4.430;2023-03-29T21:38:22;13.50;99.90
55795;DHT22;41716;51.910;4.430;2023-03-29T21:43:23;13.50;99.90
55795;DHT22;41716;51.910;4.430;2023-03-29T21:48:25;13.00;99.90
55795;DHT22;41716;51.910;4.430;2023-03-29T21:53:28;13.70;99.90
55795;DHT22;41716;51.910;4.430;2023-03-29T21:58:30;14.00;99.90
55795;DHT22;41716;51.910;4.430;2023-03-29T22:03:31;13.40;99.90
55795;DHT22;41716;51.910;4.430;2023-03-29T22:08:35;13.70;99.90
55795;DHT22;41716;51.910;4.430;2023-03-29T22:13:39;14.10;99.90
55795;DHT22;41716;51.910;4.430;2023-03-29T22:18:40;14.10;99.90
55795;DHT22;41716;51.910;4.430;2023-03-29T22:23:49;13.60;99.90
55795;DHT22;41716;51.910;4.430;2023-03-29T22:28:52;14.00;99.90
55795;DHT22;41716;51.910;4.430;2023-03-29T22:33:53;13.50;99.90
55795;DHT22;41716;51.910;4.430;2023-03-29T22:38:57;13.50;99.90
55795;DHT22;41716;51.910;4.430;2023-03-29T22:43:59;13.90;99.90
55795;DHT22;41716;51.910;4.430;2023-03-29T22:49:01;13.70;99.90
55795;DHT22;41716;51.910;4.430;2023-03-29T22:54:04;13.50;99.90
55795;DHT22;41716;51.910;4.430;2023-03-29T22:59:06;14.00;99.90
55795;DHT22;41716;51.910;4.430;2023-03-29T23:04:08;13.70;99.90
55795;DHT22;41716;51.910;4.430;2023-03-29T23:09:11;13.50;99.90
55795;DHT22;41716;51.910;4.430;2023-03-29T23:14:12;13.70;99.90
55795;DHT22;41716;51.910;4.430;2023-03-29T23:19:14;13.80;99.90
55795;DHT22;41716;51.910;4.430;2023-03-29T23:24:17;13.60;99.90
55795;DHT22;41716;51.910;4.430;2023-03-29T23:29:19;14.00;99.90
55795;DHT22;41716;51.910;4.430;2023-03-29T23:34:20;13.80;99.90
55795;DHT22;41716;51.910;4.430;2023-03-29T23:39:23;13.80;99.90
55795;DHT22;41716;51.910;4.430;2023-03-29T23:44:25;14.10;99.90
55795;DHT22;41716;51.910;4.430;2023-03-29T23:49:27;14.10;99.90
55795;DHT22;41716;51.910;4.430;2023-03-29T23:54:30;14.00;99.90
55795;DHT22;41716;51.910;4.430;2023-03-29T23:59:32;13.60;99.90
